• Join FlightAware (Why Join?)
  • Login
  • US Flag 
03:39AM EDT


 

Airport Tracker/Info


-or-


 

Live Flight TrackerFlight Track Log ✈ UAL4536 ✈ 27-Sep-2013 ✈ KEWR - KCVG

Flight Track Log - Related Links

Times and Time Zones

All times are in EDT time to prevent confusion due to time zone crossing. See the UAL4536 flight status page for this flight to view local times or setup timezone preferences in your user account.

Time Position Orientation Groundspeed Altitude Reporting Facility
EDT Latitude Longitude Course Direction KTS MPH feet Rate Location/Type
09:15PM 40.7333 -74.1167 242° Southwest 196 226 2,700  Level New York TRACON
09:16PM 40.7667 -74.2000 298° West 260 299 5,100 2,280 Climbing New York TRACON
09:17PM 40.6473 -74.5789 270° West  Level Estimated
09:17PM 40.7500 -74.2833 255° West 270 311 7,300  Level New York TRACON
09:18PM 40.6320 -74.7156 270° West  Level Estimated
09:18PM 40.7500 -74.4000 270° West 287 330 9,400  Level New York TRACON
09:19PM 40.6164 -74.8522 246° West  Level Estimated
09:20PM 40.6007 -74.9887 242° Southwest  Level Estimated
09:20PM 40.7342 -74.5614 263° West 332 382 10,800  Level New York Center
09:21PM 40.7189 -74.7056 262° West 361 415 12,500 1,560 Climbing New York Center
09:22PM 40.7089 -74.8228 264° West 370 426 13,900 1,260 Climbing New York Center
09:23PM 40.6956 -74.9589 263° West 370 426 15,000 1,140 Climbing New York Center
09:24PM 40.6675 -75.1075 256° West 370 426 16,300 1,200 Climbing New York Center
09:25PM 40.6106 -75.2325 239° Southwest 384 442 17,500 960 Climbing New York Center
09:26PM 40.5558 -75.3544 239° Southwest 395 455 18,300 840 Climbing New York Center
09:27PM 40.5011 -75.4792 240° Southwest 406 467 19,200 900 Climbing New York Center
09:28PM 40.4417 -75.6086 239° Southwest 406 467 20,200 900 Climbing New York Center
09:29PM 40.3797 -75.7406 238° Southwest 418 481 21,100 900 Climbing New York Center
09:30PM 40.3178 -75.8778 239° Southwest 424 488 22,100 1,080 Climbing New York Center
09:31PM 40.2514 -76.0089 236° Southwest 430 495 23,300 1,260 Climbing New York Center
09:32PM 40.1914 -76.1431 240° Southwest 430 495 24,700 1,260 Climbing New York Center
09:33PM 40.1289 -76.2739 238° Southwest 430 495 25,900 1,140 Climbing New York Center
09:34PM 40.0686 -76.4047 239° Southwest 430 495 27,000 1,080 Climbing New York Center
09:35PM 39.9947 -76.6314 247° West 406 467 28,800 1,020 Climbing Washington Center
09:36PM 39.9517 -76.7661 247° West 413 475 29,800 960 Climbing Washington Center
09:37PM 39.9044 -76.9058 246° West 413 475 30,800 960 Climbing Washington Center
09:38PM 39.8611 -77.0511 249° West 418 481 31,700 900 Climbing Washington Center
09:39PM 39.8133 -77.1933 246° West 430 495 32,700 900 Climbing Washington Center
09:40PM 39.7678 -77.3381 248° West 430 495 33,600 660 Climbing Washington Center
09:41PM 39.7197 -77.4853 247° West 430 495 34,000 180 Climbing Washington Center
09:42PM 39.6692 -77.6403 247° West 446 513 34,000  Level Washington Center
09:43PM 39.6164 -77.8006 247° West 464 534 34,000  Level Washington Center
09:44PM 39.5656 -77.9578 247° West 477 549 34,000  Level Washington Center
09:45PM 39.5122 -78.1175 247° West 482 555 34,000  Level Washington Center
09:46PM 39.4589 -78.2742 246° West 482 555 34,000  Level Washington Center
09:47PM 39.4050 -78.4361 247° West 488 562 34,000  Level Washington Center
09:48PM 39.3511 -78.5975 247° West 488 562 34,000  Level Washington Center
09:49PM 39.2972 -78.7536 246° West 488 562 34,000  Level Washington Center
09:50PM 39.2428 -78.9094 246° West 488 562 34,000  Level Washington Center
09:51PM 39.1883 -79.0703 246° West 488 562 34,000  Level Washington Center
09:52PM 39.1336 -79.2256 246° West 488 562 34,000  Level Washington Center
09:53PM 39.0919 -79.3653 249° West 483 556 34,000  Level Washington Center
09:54PM 39.0283 -79.5303 244° Southwest 483 556 34,000  Level Washington Center
09:55PM 38.9817 -79.6719 247° West 483 556 34,000  Level Washington Center
09:56PM 38.9283 -79.8319 247° West 483 556 34,000  Level Washington Center
09:57PM 38.8681 -79.9992 245° Southwest 483 556 34,000  Level Washington Center
09:58PM 38.8225 -80.1589 250° West 483 556 34,000  Level Washington Center
09:59PM 38.8128 -80.3344 266° West 459 528 34,000  Level Indianapolis Center
10:00PM 38.8089 -80.4958 268° West 456 525 34,000  Level Indianapolis Center
10:01PM 38.7844 -80.6578 259° West 462 532 34,000  Level Indianapolis Center
10:02PM 38.7625 -80.8206 260° West 463 533 34,000  Level Indianapolis Center
10:03PM 38.7397 -80.9839 260° West 465 535 34,000 -540 Level Indianapolis Center
10:04PM 38.7172 -81.1453 260° West 461 531 32,900 -1,020 Descending Indianapolis Center
10:05PM 38.6892 -81.3386 260° West 460 529 32,000 -480 Descending Indianapolis Center
10:07PM 38.6661 -81.4944 259° West 468 539 32,000  Level Indianapolis Center
10:08PM 38.6439 -81.6614 260° West 474 545 32,000  Level Indianapolis Center
10:09PM 38.6208 -81.8178 259° West 473 544 32,000 -300 Level Indianapolis Center
10:10PM 38.5967 -81.9806 259° West 467 537 31,500 -780 Descending Indianapolis Center
10:11PM 38.5719 -82.1439 259° West 467 537 30,500 -1,140 Descending Indianapolis Center
10:12PM 38.5425 -82.3422 259° West 471 542 29,200 -1,140 Descending Indianapolis Center
10:13PM 38.5169 -82.5056 259° West 467 537 28,200 -1,080 Descending Indianapolis Center
10:14PM 38.4917 -82.6714 259° West 474 545 27,100 -1,080 Descending Indianapolis Center
10:15PM 38.4653 -82.8375 259° West 478 550 26,100 -1,020 Descending Indianapolis Center
10:16PM 38.4392 -83.0031 259° West 478 550 25,100 -1,260 Descending Indianapolis Center
10:17PM 38.4139 -83.1656 259° West 471 542 23,600 -1,500 Descending Indianapolis Center
10:18PM 38.3969 -83.3247 262° West 462 532 22,100 -1,860 Descending Indianapolis Center
10:19PM 38.4389 -83.4672 291° West 436 502 19,900 -2,340 Descending Indianapolis Center
10:20PM 38.4883 -83.5981 296° West 417 480 17,400 -2,700 Descending Indianapolis Center
10:21PM 38.5372 -83.7261 296° West 405 466 14,500 -3,000 Descending Indianapolis Center
10:22PM 38.5844 -83.8481 296° West 389 448 11,400 -2,220 Descending Indianapolis Center
10:23PM 38.6386 -83.9864 297° West 376 433 10,000 -720 Descending Indianapolis Center
10:24PM 38.6789 -84.0883 297° West 365 420 10,000  Level Indianapolis Center
10:25PM 38.7244 -84.2042 297° West 363 418 10,000  Level Indianapolis Center
10:26PM 38.7689 -84.3161 297° West 357 411 10,000 -840 Level Indianapolis Center
10:27PM 38.8053 -84.4075 297° West 309 356 8,300 -1,800 Descending Indianapolis Center
10:28PM 38.8419 -84.4950 298° West 283 326 6,400 -1,920 Descending Indianapolis Center
10:29PM 38.8811 -84.5897 298° West 274 315 4,400 -1,320 Descending Indianapolis Center
10:30PM 38.9228 -84.6842 300° West 274 315 3,800 -1,200 Descending Indianapolis Center
10:31PM 38.9833 -84.6667 13° North 129 148 1,700 -1,200 Descending Cincinnati TRACON
10:32PM 39.0333 -84.6667 360° North 129 148 1,000 -660 Descending Cincinnati TRACON